Time;durP1;ratioP1;P1;durP2;ratioP2;P2;SDS_P1;SDS_P2;PMS_P1;PMS_P2;Temp;Humidity;BMP_temperature;BMP_pressure;BME280_temperature;BME280_humidity;BME280_pressure;Samples;Min_cycle;Max_cycle;Signal;HPM_P1;HPM_P2
2021/07/17 06:02:35;;;;;;;82.17;76.57;;;;;;;24.34;78.89;100179.78;1785806;80;26244;-79
2021/07/17 06:05:03;;;;;;;81.17;75.87;;;;;;;24.54;78.27;100177.27;1787765;80;25742;-78
2021/07/17 06:07:31;;;;;;;22.45;13.43;;;;;;;24.72;77.76;100171.03;1787750;80;27456;-66
2021/07/17 06:09:57;;;;;;;21.90;13.03;;;;;;;24.87;76.95;100167.52;1787466;80;27216;-66
2021/07/17 06:12:27;;;;;;;81.12;75.83;;;;;;;25.02;76.40;100168.77;1787675;80;25711;-66
2021/07/17 06:14:54;;;;;;;85.62;79.95;;;;;;;25.13;76.23;100181.30;1787595;80;27530;-78
2021/07/17 06:17:20;;;;;;;81.60;75.87;;;;;;;25.28;76.10;100186.09;1787616;80;25745;-78
2021/07/17 06:19:46;;;;;;;80.53;74.90;;;;;;;25.45;75.75;100182.16;1787654;80;28063;-78
2021/07/17 06:22:14;;;;;;;82.33;77.12;;;;;;;25.65;75.94;100179.55;1752211;80;25782;-78
2021/07/17 06:24:40;;;;;;;80.72;75.32;;;;;;;25.84;75.29;100187.19;1787646;80;25760;-79
2021/07/17 06:27:07;;;;;;;80.30;74.92;;;;;;;26.02;74.62;100184.83;1787682;80;25763;-79
2021/07/17 06:29:35;;;;;;;81.45;76.10;;;;;;;26.14;73.65;100191.18;1787636;80;25652;-66
2021/07/17 06:32:04;;;;;;;79.03;73.60;;;;;;;26.23;73.28;100196.20;1752229;80;28287;-66
2021/07/17 06:34:33;;;;;;;79.03;73.72;;;;;;;26.36;72.75;100197.19;1787772;80;25678;-66
2021/07/17 06:37:00;;;;;;;80.05;74.62;;;;;;;26.54;72.71;100193.34;1786957;80;25644;-79
2021/07/17 06:39:27;;;;;;;78.33;73.07;;;;;;;26.71;72.29;100192.89;1751786;80;25938;-66
2021/07/17 06:41:53;;;;;;;80.57;74.65;;;;;;;26.84;71.37;100193.25;1786908;80;25665;-79
2021/07/17 06:44:20;;;;;;;79.58;74.55;;;;;;;26.97;71.10;100189.85;1786759;79;27433;-78
2021/07/17 06:46:48;;;;;;;78.12;72.85;;;;;;;27.10;70.08;100192.19;1786847;79;25688;-79
2021/07/17 06:49:15;;;;;;;78.77;73.47;;;;;;;27.20;70.03;100189.05;1787149;80;25663;-79
2021/07/17 06:51:41;;;;;;;80.72;75.22;;;;;;;27.36;70.18;100185.58;1786842;80;26291;-66
2021/07/17 06:54:07;;;;;;;77.78;72.85;;;;;;;27.54;69.93;100181.06;1786878;79;25661;-66
2021/07/17 06:56:34;;;;;;;78.47;72.62;;;;;;;27.73;69.40;100179.48;1786891;79;27424;-66
2021/07/17 06:59:00;;;;;;;79.17;74.05;;;;;;;27.90;68.63;100174.74;1786662;80;25423;-66
2021/07/17 07:01:27;;;;;;;76.45;71.40;;;;;;;28.04;68.11;100175.83;1782141;80;26071;-66
2021/07/17 07:03:53;;;;;;;77.05;71.97;;;;;;;28.24;68.17;100184.11;1775946;80;25649;-66
2021/07/17 07:06:19;;;;;;;75.52;70.37;;;;;;;28.37;67.15;100176.49;1777182;80;25768;-80
2021/07/17 07:08:46;;;;;;;78.02;73.00;;;;;;;28.49;66.99;100180.73;1779180;80;27429;-81
2021/07/17 07:11:12;;;;;;;79.07;73.80;;;;;;;28.62;66.06;100173.91;1776144;80;25767;-80
2021/07/17 07:13:39;;;;;;;74.92;70.03;;;;;;;28.80;66.27;100175.44;1776938;80;25640;-81
2021/07/17 07:16:05;;;;;;;75.15;70.52;;;;;;;28.99;65.31;100184.26;1776408;80;25697;-81
2021/07/17 07:18:32;;;;;;;75.95;70.70;;;;;;;29.09;65.08;100180.25;1776859;80;25637;-81
2021/07/17 07:20:58;;;;;;;76.40;70.35;;;;;;;29.28;65.02;100191.86;1776853;80;27369;-81
2021/07/17 07:23:27;;;;;;;75.35;70.65;;;;;;;29.44;64.54;100188.25;1777085;80;26332;-81
2021/07/17 07:25:53;;;;;;;74.62;69.65;;;;;;;29.62;63.91;100182.92;1777238;80;26340;-81
2021/07/17 07:28:20;;;;;;;74.37;69.50;;;;;;;29.78;63.43;100186.88;1776799;80;25770;-81
2021/07/17 07:30:46;;;;;;;76.97;71.85;;;;;;;29.91;62.58;100193.25;1776823;80;25727;-81
2021/07/17 07:33:12;;;;;;;75.42;70.42;;;;;;;30.06;62.32;100189.41;1750219;80;27556;-82
2021/07/17 07:35:39;;;;;;;72.87;68.40;;;;;;;30.24;62.00;100197.23;1776898;80;25757;-82
2021/07/17 07:38:06;;;;;;;74.27;69.60;;;;;;;30.40;61.45;100195.57;1777134;80;25759;-82
2021/07/17 07:40:33;;;;;;;18.15;15.13;;;;;;;30.63;61.19;100197.98;1776839;80;25635;-81
2021/07/17 07:42:59;;;;;;;17.80;10.43;;;;;;;30.88;60.93;100202.70;1776998;80;25670;-80
2021/07/17 07:45:27;;;;;;;19.57;10.45;;;;;;;31.09;60.04;100204.61;1776869;80;27893;-81
2021/07/17 07:47:56;;;;;;;16.15;10.32;;;;;;;31.20;59.55;100200.06;1776727;80;25698;-66
2021/07/17 07:50:23;;;;;;;22.75;11.00;;;;;;;31.39;59.65;100200.34;1781391;80;25663;-80
2021/07/17 07:52:52;;;;;;;72.75;68.05;;;;;;;31.63;58.98;100206.89;1784629;80;25672;-80
2021/07/17 07:55:19;;;;;;;71.07;66.35;;;;;;;31.72;57.88;100202.77;1784612;80;25619;-80
2021/07/17 07:57:46;;;;;;;71.85;67.47;;;;;;;31.84;57.66;100209.48;1784638;80;27071;-80
2021/07/17 08:00:16;;;;;;;72.03;67.50;;;;;;;32.03;57.54;100207.57;1760538;80;25722;-80
2021/07/17 08:02:42;;;;;;;71.60;66.65;;;;;;;32.23;56.81;100206.42;1784475;80;25632;-66
2021/07/17 08:05:10;;;;;;;68.78;64.25;;;;;;;32.43;56.82;100206.78;1784560;80;25642;-66
2021/07/17 08:07:36;;;;;;;70.55;66.05;;;;;;;32.67;56.12;100209.05;1786429;80;26355;-66
2021/07/17 08:10:05;;;;;;;70.47;65.78;;;;;;;32.84;54.96;100211.70;1784505;80;27332;-66
2021/07/17 08:12:31;;;;;;;70.15;65.25;;;;;;;33.04;54.05;100213.28;1760523;80;25833;-66
2021/07/17 08:14:58;;;;;;;69.10;64.32;;;;;;;33.04;54.05;100213.28;1784572;80;25708;-66
2021/07/17 08:17:26;;;;;;;71.65;66.47;;;;;;;33.08;53.59;100213.30;1784639;80;25659;-66
2021/07/17 08:19:52;;;;;;;68.35;64.30;;;;;;;33.16;53.80;100212.38;1786070;80;25651;-67
2021/07/17 08:22:19;;;;;;;70.35;65.30;;;;;;;33.38;53.63;100215.00;1784587;80;27606;-67
2021/07/17 08:24:45;;;;;;;71.65;67.10;;;;;;;33.52;53.12;100214.20;1784341;80;25703;-67
2021/07/17 08:27:11;;;;;;;69.60;64.65;;;;;;;33.76;53.18;100212.29;1712386;82;25729;-67
2021/07/17 08:29:38;;;;;;;69.82;64.77;;;;;;;34.03;52.33;100216.25;1754116;81;27579;-67
2021/07/17 08:32:08;;;;;;;69.25;64.75;;;;;;;34.22;51.92;100219.18;1760162;81;25708;-66
2021/07/17 08:34:34;;;;;;;70.78;65.78;;;;;;;34.32;51.11;100215.67;1760295;81;28014;-66
2021/07/17 08:37:01;;;;;;;69.90;65.42;;;;;;;34.49;51.12;100208.27;1760078;81;25864;-66
2021/07/17 08:39:27;;;;;;;69.07;64.75;;;;;;;34.69;50.76;100214.69;1760194;81;25716;-66
2021/07/17 08:41:55;;;;;;;67.05;62.67;;;;;;;34.97;50.13;100213.27;1760190;81;25695;-67
2021/07/17 08:44:24;;;;;;;68.30;63.38;;;;;;;35.01;49.21;100210.88;1760364;81;25983;-67
2021/07/17 08:46:52;;;;;;;70.42;65.62;;;;;;;35.07;49.51;100207.55;1760352;81;32916;-67
2021/07/17 08:49:22;;;;;;;67.67;63.02;;;;;;;35.35;49.39;100209.52;1736806;81;25753;-67
2021/07/17 08:51:51;;;;;;;66.80;62.53;;;;;;;35.51;48.51;100213.24;1760185;81;25732;-67
2021/07/17 08:54:19;;;;;;;69.22;64.10;;;;;;;35.71;48.19;100213.97;1760293;81;25703;-67
2021/07/17 08:56:45;;;;;;;68.70;63.92;;;;;;;35.78;47.57;100206.44;1760285;81;25635;-67
2021/07/17 08:59:11;;;;;;;66.25;61.90;;;;;;;35.93;47.37;100209.21;1760123;81;27487;-67
2021/07/17 09:01:39;;;;;;;67.12;63.08;;;;;;;36.14;47.54;100208.66;1760053;81;25648;-66
2021/07/17 09:04:07;;;;;;;67.35;62.65;;;;;;;36.33;46.92;100202.93;1760222;81;25733;-67
2021/07/17 09:06:34;;;;;;;67.15;62.50;;;;;;;36.53;46.40;100200.77;1753425;81;26254;-67
2021/07/17 09:09:02;;;;;;;67.08;62.73;;;;;;;36.59;45.49;100202.24;1749751;82;25740;-67
2021/07/17 09:11:41;;;;;;;66.20;62.00;;;;;;;36.63;45.54;100197.95;1749771;82;27321;-67
2021/07/17 09:14:08;;;;;;;63.98;60.08;;;;;;;36.90;45.50;100196.62;1749673;82;25922;-67
2021/07/17 09:16:38;;;;;;;65.17;61.10;;;;;;;37.18;44.98;100194.14;1750020;82;25685;-67
2021/07/17 09:19:06;;;;;;;63.78;59.45;;;;;;;37.36;44.43;100188.81;1749706;82;25635;-78
2021/07/17 09:21:38;;;;;;;63.02;58.92;;;;;;;37.39;43.67;100187.80;1749858;82;25701;-77
2021/07/17 09:24:14;;;;;;;65.55;61.55;;;;;;;37.46;43.61;100186.58;1749694;82;27546;-77
2021/07/17 09:26:56;;;;;;;64.58;60.63;;;;;;;37.66;43.40;100185.75;1749737;82;25326;-77
2021/07/17 09:29:34;;;;;;;63.15;59.25;;;;;;;37.81;42.97;100187.03;1749759;82;25981;-76
2021/07/17 09:32:01;;;;;;;63.73;59.38;;;;;;;37.97;42.42;100200.47;1749895;82;25748;-77
2021/07/17 09:34:33;;;;;;;64.42;60.30;;;;;;;37.92;42.67;100183.65;1749793;82;25647;-77
2021/07/17 09:37:07;;;;;;;63.42;59.60;;;;;;;38.07;42.48;100189.14;1749710;82;27494;-77
2021/07/17 09:39:40;;;;;;;63.45;59.73;;;;;;;38.17;42.40;100181.25;1749783;82;25774;-76
2021/07/17 09:42:14;;;;;;;63.17;59.18;;;;;;;38.35;41.97;100175.08;1754558;81;25643;-77
2021/07/17 09:44:41;;;;;;;61.95;58.00;;;;;;;38.55;41.58;100181.17;1760294;81;25617;-77
2021/07/17 09:47:23;;;;;;;63.20;58.92;;;;;;;38.62;40.93;100181.50;1760400;81;25690;-77
2021/07/17 09:49:50;;;;;;;63.30;59.30;;;;;;;38.89;40.77;100198.28;1760195;81;27021;-76
2021/07/17 09:52:21;;;;;;;62.73;58.45;;;;;;;38.96;40.73;100169.51;1760345;81;25690;-76
2021/07/17 09:55:07;;;;;;;61.10;57.43;;;;;;;39.16;40.70;100171.38;1760303;81;25629;-76
2021/07/17 09:57:35;;;;;;;61.75;57.78;;;;;;;39.40;40.78;100169.47;1759794;81;25612;-77
2021/07/17 10:00:13;;;;;;;61.53;57.17;;;;;;;39.63;39.58;100161.02;1760424;81;25335;-76
2021/07/17 10:02:40;;;;;;;61.40;57.53;;;;;;;39.72;38.45;100162.16;1763623;81;27934;-77
2021/07/17 10:05:11;;;;;;;62.43;58.00;;;;;;;39.41;37.78;100165.36;1765656;81;25994;-77
2021/07/17 10:07:38;;;;;;;61.85;57.78;;;;;;;39.28;37.76;100167.27;1765727;81;25651;-77
2021/07/17 10:10:07;;;;;;;62.30;58.02;;;;;;;39.16;38.26;100165.08;1765801;81;25630;-77
2021/07/17 10:12:37;;;;;;;61.60;57.75;;;;;;;39.16;38.30;100161.48;1765681;81;25634;-78
2021/07/17 10:15:09;;;;;;;59.83;56.00;;;;;;;39.22;38.53;100159.45;1768070;81;28315;-80
2021/07/17 10:17:39;;;;;;;59.93;56.13;;;;;;;39.29;38.22;100158.93;1735322;81;25807;-79
2021/07/17 10:20:10;;;;;;;60.80;56.45;;;;;;;39.47;38.30;100160.48;1754865;81;25721;-68
2021/07/17 10:22:38;;;;;;;60.73;56.92;;;;;;;39.67;38.07;100153.03;1752629;81;26378;-68
2021/07/17 10:25:10;;;;;;;62.25;57.95;;;;;;;39.80;37.19;100146.85;1749258;82;25773;-68
2021/07/17 10:27:38;;;;;;;60.08;55.88;;;;;;;39.73;37.26;100146.08;1728432;82;27324;-66
2021/07/17 10:30:07;;;;;;;59.95;56.00;;;;;;;39.87;37.36;100144.25;1749203;82;29883;-67
2021/07/17 10:32:34;;;;;;;59.55;55.67;;;;;;;40.13;37.64;100145.39;1749095;82;25652;-67
2021/07/17 10:35:01;;;;;;;59.27;55.45;;;;;;;40.37;37.32;100143.22;1749249;82;25629;-67
2021/07/17 10:37:32;;;;;;;60.07;56.07;;;;;;;40.60;37.02;100138.27;1749520;82;25644;-67
2021/07/17 10:40:13;;;;;;;60.58;56.35;;;;;;;40.72;36.77;100139.73;1749320;82;27877;-67
2021/07/17 10:42:49;;;;;;;58.92;55.25;;;;;;;40.80;36.46;100139.30;1749320;82;25692;-82
2021/07/17 10:45:38;;;;;;;61.25;57.23;;;;;;;40.78;36.08;100131.19;1780032;80;26300;-82
2021/07/17 10:48:28;;;;;;;60.12;56.18;;;;;;;40.81;35.70;100123.84;1781013;80;25699;-82
2021/07/17 10:51:00;;;;;;;57.65;54.10;;;;;;;40.90;35.85;100127.00;1776873;80;25833;-67
2021/07/17 10:53:50;;;;;;;33.02;30.15;;;;;;;41.00;35.61;100125.41;1776674;80;27537;-67
2021/07/17 10:56:37;;;;;;;14.53;10.15;;;;;;;41.16;35.78;100129.41;1778298;79;25941;-67
2021/07/17 10:59:18;;;;;;;16.80;9.43;;;;;;;41.29;35.67;100130.22;1789840;79;25632;-67
2021/07/17 11:02:02;;;;;;;19.82;8.95;;;;;;;41.49;35.26;100126.84;1783389;80;26666;-67
2021/07/17 11:04:54;;;;;;;14.78;8.98;;;;;;;41.60;34.72;100131.00;1739796;81;25759;-82
2021/07/17 11:07:46;;;;;;;17.55;9.25;;;;;;;41.30;33.98;100126.09;1742335;81;28138;-81
2021/07/17 11:10:14;;;;;;;13.38;9.05;;;;;;;40.55;33.96;100122.82;1633100;87;28571;-81
2021/07/17 11:12:51;;;;;;;13.08;9.48;;;;;;;39.90;34.30;100126.89;1675046;84;25808;-81
2021/07/17 11:15:23;;;;;;;15.13;9.75;;;;;;;39.34;34.61;100125.63;1663716;84;25802;-81
2021/07/17 11:17:56;;;;;;;16.75;9.63;;;;;;;38.68;35.14;100125.77;1647579;86;25778;-80
2021/07/17 11:20:32;;;;;;;62.38;58.38;;;;;;;38.22;35.87;100126.09;1656518;86;27506;-79
2021/07/17 11:23:12;;;;;;;61.30;57.78;;;;;;;37.93;36.55;100144.25;1646302;86;25559;-81
2021/07/17 11:25:54;;;;;;;62.60;58.42;;;;;;;37.42;36.75;100118.36;1655912;86;25772;-80
2021/07/17 11:28:56;;;;;;;62.55;58.63;;;;;;;37.06;37.73;100112.13;1647175;86;25650;-81
2021/07/17 11:31:36;;;;;;;61.65;57.85;;;;;;;36.86;38.16;100105.91;1646626;86;25721;-81
2021/07/17 11:34:22;;;;;;;63.70;59.65;;;;;;;36.69;38.71;100105.70;1647632;86;27330;-81
2021/07/17 11:36:52;;;;;;;65.80;61.58;;;;;;;36.50;38.38;100098.96;1640772;86;26113;-81
2021/07/17 11:39:29;;;;;;;64.58;60.60;;;;;;;36.29;38.82;100095.39;1648860;86;25911;-80
2021/07/17 11:41:58;;;;;;;64.50;60.38;;;;;;;36.04;38.61;100091.96;1644593;86;25831;-81
2021/07/17 11:44:33;;;;;;;66.70;62.35;;;;;;;35.80;39.06;100094.20;1644290;86;26791;-81
2021/07/17 11:47:13;;;;;;;66.30;62.00;;;;;;;35.67;39.76;100084.63;1665753;83;27197;-81
2021/07/17 11:49:44;;;;;;;66.55;62.45;;;;;;;35.52;39.95;100086.86;1747004;81;26440;-81
2021/07/17 11:52:21;;;;;;;69.17;64.12;;;;;;;35.34;40.36;100082.86;1705915;83;25792;-81
2021/07/17 11:54:58;;;;;;;69.90;64.47;;;;;;;35.17;40.99;100072.08;1706609;83;25848;-81
2021/07/17 11:57:29;;;;;;;66.87;62.77;;;;;;;35.00;41.16;100077.28;1743449;81;25716;-80
2021/07/17 12:00:01;;;;;;;70.47;65.55;;;;;;;34.80;41.33;100066.06;1740526;81;27481;-81
2021/07/17 12:02:31;;;;;;;69.20;64.40;;;;;;;34.62;41.78;100061.38;1733217;80;25769;-80
2021/07/17 12:05:02;;;;;;;68.62;64.60;;;;;;;34.46;41.94;100055.58;1764818;80;25627;-80
2021/07/17 12:07:32;;;;;;;69.95;65.60;;;;;;;34.29;42.04;100061.48;1770431;79;25710;-80
2021/07/17 12:10:09;;;;;;;68.33;63.78;;;;;;;34.10;42.71;100061.59;1757077;81;26318;-80
2021/07/17 12:12:42;;;;;;;69.58;65.08;;;;;;;34.00;43.52;100067.91;1769494;80;27920;-80
2021/07/17 12:15:18;;;;;;;68.75;64.67;;;;;;;33.92;44.42;100060.30;1751726;81;25726;-79
2021/07/17 12:17:52;;;;;;;68.10;63.60;;;;;;;33.86;44.02;100053.94;1757909;81;25770;-79
2021/07/17 12:20:38;;;;;;;72.10;67.53;;;;;;;33.84;43.86;100051.47;1771817;80;25748;-80
2021/07/17 12:23:11;;;;;;;69.77;65.15;;;;;;;33.90;44.79;100050.19;1777939;80;25691;-80
2021/07/17 12:25:54;;;;;;;68.92;64.35;;;;;;;33.97;44.24;100047.81;1743037;80;27209;-80
2021/07/17 12:28:28;;;;;;;70.40;65.52;;;;;;;34.10;44.02;100043.35;1774292;80;25703;-80
2021/07/17 12:30:58;;;;;;;69.40;65.20;;;;;;;34.25;44.25;100043.43;1774805;80;25774;-79
2021/07/17 12:33:39;;;;;;;69.92;64.97;;;;;;;34.37;43.92;100045.20;1768358;80;25705;-80
2021/07/17 12:36:25;;;;;;;67.30;62.67;;;;;;;34.48;43.61;100044.66;1768384;80;25743;-80
2021/07/17 12:38:56;;;;;;;68.42;64.22;;;;;;;34.53;43.67;100042.59;1770721;80;27502;-80
2021/07/17 12:41:32;;;;;;;68.75;64.10;;;;;;;34.63;43.82;100040.45;1749650;81;25819;-80
2021/07/17 12:44:09;;;;;;;66.45;62.27;;;;;;;34.82;43.79;100040.30;1756917;81;25652;-80
2021/07/17 12:46:39;;;;;;;70.12;65.65;;;;;;;34.90;43.40;100038.03;1731904;81;25949;-81
2021/07/17 12:49:18;;;;;;;67.25;62.95;;;;;;;34.91;43.28;100030.39;1771123;79;25665;-82
2021/07/17 12:51:48;;;;;;;68.62;64.32;;;;;;;34.97;43.30;100034.06;1720247;83;28020;-81
2021/07/17 12:54:22;;;;;;;69.03;64.58;;;;;;;35.05;43.56;100033.81;1768879;80;25654;-81
2021/07/17 12:56:58;;;;;;;67.78;63.50;;;;;;;35.11;43.60;100027.67;1757346;80;25759;-80
2021/07/17 12:59:33;;;;;;;69.10;64.80;;;;;;;35.13;43.60;100022.33;1788123;80;25642;-80
2021/07/17 13:02:07;;;;;;;68.30;63.95;;;;;;;35.16;43.91;100029.80;1791960;80;25753;-80
2021/07/17 13:04:38;;;;;;;69.30;64.55;;;;;;;35.16;43.58;100023.37;1780696;80;27384;-79
2021/07/17 13:07:07;;;;;;;67.50;63.00;;;;;;;35.15;43.75;100027.47;1756848;80;25724;-81
2021/07/17 13:09:40;;;;;;;67.22;62.55;;;;;;;35.20;43.98;100026.02;1753086;80;25711;-81
2021/07/17 13:12:10;;;;;;;70.12;65.35;;;;;;;35.32;43.80;100024.31;1777867;80;26012;-81
2021/07/17 13:14:40;;;;;;;67.10;62.93;;;;;;;35.57;44.16;100012.30;1781424;80;25787;-81
2021/07/17 13:17:19;;;;;;;67.75;63.73;;;;;;;35.97;43.32;100015.00;1780106;80;28267;-80
2021/07/17 13:19:47;;;;;;;69.62;64.82;;;;;;;36.31;43.03;100009.04;1781388;80;25649;-81
2021/07/17 13:22:15;;;;;;;;;;;;;;;36.63;41.61;100007.06;1784170;80;25811;-81
2021/07/17 13:24:45;;;;;;;68.15;63.95;;;;;;;36.80;40.35;100003.78;1783467;80;25565;-80
2021/07/17 13:27:23;;;;;;;66.82;62.65;;;;;;;37.02;40.78;100001.02;1783732;80;25297;-80
2021/07/17 13:29:54;;;;;;;65.10;61.00;;;;;;;37.32;40.15;100004.97;1778711;80;25888;-80
2021/07/17 13:32:38;;;;;;;65.90;61.50;;;;;;;37.62;39.70;99997.59;1781362;80;25747;-81
2021/07/17 13:35:25;;;;;;;64.60;60.58;;;;;;;37.88;39.32;99996.06;1778003;80;25834;-80
2021/07/17 13:38:15;;;;;;;64.65;60.63;;;;;;;38.15;38.99;99999.53;1778643;80;25710;-80
2021/07/17 13:40:46;;;;;;;64.35;60.20;;;;;;;38.38;38.11;99991.88;1781990;80;25710;-80
2021/07/17 13:43:16;;;;;;;66.10;61.70;;;;;;;38.53;37.29;99988.17;1755504;80;27884;-80
2021/07/17 13:45:45;;;;;;;65.30;61.60;;;;;;;38.61;36.66;99996.30;1781248;80;25759;-79
2021/07/17 13:48:13;;;;;;;63.00;58.28;;;;;;;38.63;36.65;100002.86;1781386;80;25718;-79
2021/07/17 13:50:48;;;;;;;63.90;59.53;;;;;;;38.54;36.16;100006.67;1781237;80;25707;-79
2021/07/17 13:53:19;;;;;;;64.65;60.23;;;;;;;38.33;35.58;100008.16;1781236;80;26374;-66
2021/07/17 13:55:49;;;;;;;64.30;59.90;;;;;;;38.19;36.06;100009.28;1777098;80;28045;-79
2021/07/17 13:58:27;;;;;;;61.48;57.83;;;;;;;38.19;36.44;100008.52;1781257;80;25764;-79
2021/07/17 14:00:58;;;;;;;63.52;59.13;;;;;;;38.37;36.76;100007.30;1779270;80;30793;-79
2021/07/17 14:03:36;;;;;;;64.20;60.05;;;;;;;38.60;36.42;100010.31;1776869;80;25736;-79
2021/07/17 14:06:08;;;;;;;62.75;58.87;;;;;;;38.65;36.03;100003.11;1781348;80;26314;-79
2021/07/17 14:08:37;;;;;;;61.55;57.93;;;;;;;38.74;35.82;100000.05;1777161;80;27435;-79
2021/07/17 14:11:08;;;;;;;63.90;59.77;;;;;;;38.87;35.98;100012.24;1781111;80;26417;-80
2021/07/17 14:13:37;;;;;;;63.55;59.33;;;;;;;38.89;36.12;100002.63;1776892;80;25676;-79
2021/07/17 14:16:06;;;;;;;61.15;57.27;;;;;;;38.98;36.14;100002.36;1781127;80;25751;-80
2021/07/17 14:18:34;;;;;;;73.37;68.25;;;;;;;39.06;35.70;100002.63;1781245;80;25736;-79
2021/07/17 14:21:02;;;;;;;62.03;58.00;;;;;;;39.05;35.08;100002.52;1781323;80;27867;-80
2021/07/17 14:23:29;;;;;;;62.60;58.87;;;;;;;39.03;35.15;99993.75;1781217;80;25765;-79
2021/07/17 14:25:58;;;;;;;64.20;60.35;;;;;;;38.99;34.95;99991.81;1781272;80;25831;-79
2021/07/17 14:28:28;;;;;;;63.23;59.35;;;;;;;39.00;34.66;100004.67;1776832;80;25812;-79
2021/07/17 14:30:55;;;;;;;62.50;58.40;;;;;;;38.74;34.32;99985.92;1781231;80;25782;-80
2021/07/17 14:33:25;;;;;;;61.90;58.43;;;;;;;38.74;34.32;99985.92;1781175;80;27533;-79
2021/07/17 14:35:51;;;;;;;62.78;59.10;;;;;;;38.60;34.85;100013.77;1780886;80;25686;-79
2021/07/17 14:38:19;;;;;;;63.80;59.88;;;;;;;38.60;34.85;100013.77;1780951;80;26452;-79
2021/07/17 14:40:46;;;;;;;;;;;;;;;38.45;35.10;99993.57;1780194;80;25779;-79
2021/07/17 14:43:15;;;;;;;63.35;59.45;;;;;;;38.29;35.16;99985.20;1781040;80;25617;-79
2021/07/17 14:45:42;;;;;;;61.33;57.83;;;;;;;38.10;34.96;99975.61;1781078;80;28044;-79
2021/07/17 14:48:09;;;;;;;65.03;60.60;;;;;;;37.93;35.30;99982.61;1780825;80;25715;-79
2021/07/17 14:50:35;;;;;;;61.18;57.38;;;;;;;37.83;35.63;99977.06;1781238;80;25800;-67
2021/07/17 14:53:03;;;;;;;64.80;60.75;;;;;;;37.79;36.14;99985.02;1781224;80;26473;-66
2021/07/17 14:55:30;;;;;;;64.55;60.00;;;;;;;37.63;35.95;99973.73;1781100;80;25748;-66
2021/07/17 14:57:57;;;;;;;64.17;59.93;;;;;;;37.54;36.22;99975.48;1781419;80;27934;-66
2021/07/17 15:00:24;;;;;;;62.83;58.87;;;;;;;37.49;36.68;99978.28;1780933;80;25705;-66
2021/07/17 15:02:50;;;;;;;64.27;60.25;;;;;;;37.38;36.55;99973.36;1781069;80;25770;-66
2021/07/17 15:05:17;;;;;;;65.15;61.05;;;;;;;37.16;36.58;99971.91;1781024;80;25739;-66
2021/07/17 15:07:44;;;;;;;63.95;59.77;;;;;;;36.91;36.65;99963.65;1781067;80;25778;-66
2021/07/17 15:10:12;;;;;;;65.13;60.80;;;;;;;36.63;36.84;99954.95;1781189;80;27307;-66
2021/07/17 15:12:40;;;;;;;64.17;59.95;;;;;;;36.36;37.32;99962.63;1781126;80;25644;-66
2021/07/17 15:15:09;;;;;;;67.08;62.95;;;;;;;36.11;37.69;99956.33;1777064;80;34945;-66
2021/07/17 15:17:35;;;;;;;66.50;62.25;;;;;;;35.83;38.20;99946.30;1780963;80;25729;-66
2021/07/17 15:20:03;;;;;;;66.80;62.40;;;;;;;35.57;38.82;99955.25;1781114;80;25663;-66
2021/07/17 15:22:30;;;;;;;66.02;61.48;;;;;;;35.25;39.49;99956.50;1781372;80;27352;-66
2021/07/17 15:24:56;;;;;;;66.95;62.48;;;;;;;34.95;40.00;99955.87;1781064;80;26467;-66
2021/07/17 15:27:22;;;;;;;66.45;62.27;;;;;;;34.65;40.61;99953.72;1781161;80;25873;-78
2021/07/17 15:29:50;;;;;;;68.20;63.80;;;;;;;34.41;41.18;99952.38;1781746;80;25802;-79
2021/07/17 15:32:17;;;;;;;65.03;61.00;;;;;;;34.11;41.63;99942.50;1781274;80;25745;-79
2021/07/17 15:34:43;;;;;;;67.97;63.38;;;;;;;33.83;41.98;99939.93;1781458;80;27311;-78
2021/07/17 15:37:10;;;;;;;70.90;66.35;;;;;;;33.60;42.52;99935.08;1781166;80;25824;-78
2021/07/17 15:39:36;;;;;;;70.37;65.75;;;;;;;33.38;42.96;99936.77;1781414;80;26042;-79
2021/07/17 15:42:04;;;;;;;16.50;11.33;;;;;;;33.15;43.64;99939.67;1781306;80;25677;-78
2021/07/17 15:44:31;;;;;;;16.05;11.50;;;;;;;32.91;44.31;99939.75;1781146;80;25667;-78
2021/07/17 15:46:57;;;;;;;71.47;66.57;;;;;;;32.69;44.89;99939.98;1781254;80;26877;-79
2021/07/17 15:49:23;;;;;;;68.70;64.32;;;;;;;32.47;45.48;99944.35;1780980;80;25733;-78
2021/07/17 15:51:50;;;;;;;70.83;66.02;;;;;;;32.29;45.71;99952.13;1781258;80;25688;-79
2021/07/17 15:54:19;;;;;;;72.22;67.82;;;;;;;32.11;46.10;99954.30;1781299;80;25691;-78
2021/07/17 15:56:45;;;;;;;70.80;66.55;;;;;;;31.99;46.78;99958.80;1781367;80;25680;-79
2021/07/17 15:59:12;;;;;;;72.82;67.67;;;;;;;31.76;46.31;99943.39;1781212;80;27450;-78
2021/07/17 16:01:38;;;;;;;73.20;68.25;;;;;;;31.61;46.51;99943.21;1781025;80;25805;-78
2021/07/17 16:04:05;;;;;;;73.10;68.60;;;;;;;31.52;47.03;99943.20;1780677;79;25654;-78
2021/07/17 16:06:31;;;;;;;73.70;69.00;;;;;;;31.43;47.43;99943.13;1781083;80;25716;-78
2021/07/17 16:08:58;;;;;;;74.20;69.65;;;;;;;31.32;47.54;99937.98;1781401;80;25660;-78
2021/07/17 16:11:24;;;;;;;71.72;66.97;;;;;;;31.23;47.52;99941.53;1781160;80;27361;-78
2021/07/17 16:13:51;;;;;;;73.75;69.10;;;;;;;31.19;47.79;99937.32;1781240;80;25679;-79
2021/07/17 16:16:21;;;;;;;75.03;69.77;;;;;;;31.16;48.09;99939.03;1781206;80;26257;-79
2021/07/17 16:18:46;;;;;;;76.77;71.25;;;;;;;31.16;48.45;99931.25;1750532;80;25705;-78
2021/07/17 16:21:13;;;;;;;77.32;71.95;;;;;;;31.15;48.53;99927.69;1781049;80;25671;-66
2021/07/17 16:23:40;;;;;;;75.90;70.62;;;;;;;31.10;48.43;99933.25;1781142;80;27360;-66
2021/07/17 16:26:08;;;;;;;74.05;69.40;;;;;;;31.03;48.32;99934.17;1780867;80;25739;-66
2021/07/17 16:28:35;;;;;;;74.92;70.40;;;;;;;30.88;48.29;99943.05;1781184;80;26385;-66
2021/07/17 16:31:01;;;;;;;74.80;69.77;;;;;;;30.78;48.75;99957.43;1781157;80;27864;-66
2021/07/17 16:33:30;;;;;;;74.75;70.12;;;;;;;30.70;49.24;99964.69;1772758;80;25624;-66
2021/07/17 16:35:56;;;;;;;75.75;70.47;;;;;;;30.63;49.62;99976.12;1755153;80;27270;-66
2021/07/17 16:38:22;;;;;;;75.35;70.55;;;;;;;30.60;50.25;99979.02;1776843;80;25766;-66
2021/07/17 16:40:49;;;;;;;76.72;71.42;;;;;;;30.54;50.53;99981.00;1776998;80;25730;-66
2021/07/17 16:43:16;;;;;;;75.42;70.37;;;;;;;30.48;50.77;99975.09;1781024;80;25990;-66
2021/07/17 16:45:43;;;;;;;74.32;69.20;;;;;;;30.44;50.85;99979.38;1755355;80;25711;-66
2021/07/17 16:48:10;;;;;;;72.03;67.20;;;;;;;30.34;50.31;99979.91;1772363;80;27390;-68
2021/07/17 16:50:37;;;;;;;71.37;66.95;;;;;;;30.27;50.06;99978.75;1781914;80;25810;-78
2021/07/17 16:53:05;;;;;;;13.13;10.18;;;;;;;30.20;49.64;99990.16;1781641;80;25758;-79
2021/07/17 16:55:35;;;;;;;16.65;10.85;;;;;;;30.16;49.41;99997.88;1781821;80;25796;-67
2021/07/17 16:58:04;;;;;;;13.83;9.10;;;;;;;30.07;49.10;99999.18;1781143;80;25723;-66
2021/07/17 17:00:31;;;;;;;8.63;7.30;;;;;;;29.96;48.31;99992.58;1779082;80;27368;-66
2021/07/17 17:02:59;;;;;;;15.98;8.00;;;;;;;29.77;47.08;99995.18;1781035;80;25710;-66
2021/07/17 17:05:26;;;;;;;12.50;8.05;;;;;;;29.62;46.79;99980.13;1781169;80;25712;-66
2021/07/17 17:07:53;;;;;;;13.50;8.05;;;;;;;29.49;46.65;99981.55;1777278;80;26226;-67
2021/07/17 17:10:19;;;;;;;10.60;8.20;;;;;;;29.38;46.75;99983.89;1774860;80;25771;-66
2021/07/17 17:12:48;;;;;;;14.73;10.72;;;;;;;29.29;46.94;99972.65;1777781;80;27321;-79
2021/07/17 17:15:15;;;;;;;10.35;7.95;;;;;;;29.20;47.09;99969.91;1775964;80;25809;-78
2021/07/17 17:17:42;;;;;;;11.93;8.00;;;;;;;29.14;46.99;99975.06;1767571;80;25631;-79
2021/07/17 17:20:12;;;;;;;14.15;8.50;;;;;;;29.05;47.10;99977.12;1776309;80;27511;-78
2021/07/17 17:22:44;;;;;;;15.68;9.70;;;;;;;28.97;47.14;99977.92;1778564;80;26154;-79
2021/07/17 17:25:13;;;;;;;12.65;8.00;;;;;;;28.90;47.15;99980.93;1778985;80;27388;-78
2021/07/17 17:27:42;;;;;;;13.05;8.38;;;;;;;28.83;47.05;99989.49;1778079;80;26039;-78